createdAt,value
2018-07-11T00:00:31.123Z,1.40
2018-07-11T00:05:24.424Z,1.53
2018-07-11T00:10:19.228Z,1.60
2018-07-11T00:15:12.483Z,1.17
2018-07-11T00:20:05.859Z,1.60
2018-07-11T00:24:59.085Z,1.30
2018-07-11T00:29:52.464Z,1.55
2018-07-11T00:34:45.813Z,1.50
2018-07-11T00:39:39.133Z,1.50
2018-07-11T00:44:32.465Z,1.90
2018-07-11T00:49:25.823Z,1.67
2018-07-11T00:54:19.270Z,1.50
2018-07-11T00:59:26.594Z,1.37
2018-07-11T01:04:19.957Z,1.50
2018-07-11T01:09:13.116Z,1.95
2018-07-11T01:14:06.500Z,1.80
2018-07-11T01:19:05.979Z,2.00
2018-07-11T01:23:59.721Z,1.33
2018-07-11T01:28:53.069Z,1.60
2018-07-11T01:33:46.320Z,1.65
2018-07-11T01:38:39.591Z,1.80
2018-07-11T01:43:32.893Z,1.70
2018-07-11T01:48:26.260Z,1.80
2018-07-11T01:53:19.579Z,1.92
2018-07-11T01:58:13.041Z,1.90
2018-07-11T02:03:06.194Z,2.10
2018-07-11T02:07:59.563Z,2.10
2018-07-11T02:12:52.796Z,2.13
2018-07-11T02:17:46.349Z,2.20
2018-07-11T02:22:40.037Z,2.60
2018-07-11T02:27:33.565Z,2.57
2018-07-11T02:32:26.927Z,2.80
2018-07-11T02:37:20.201Z,2.72
2018-07-11T02:42:13.541Z,3.00
2018-07-11T02:47:44.154Z,3.10
2018-07-11T02:52:37.429Z,3.07
2018-07-11T02:57:30.722Z,2.92
2018-07-11T03:02:24.080Z,3.10
2018-07-11T03:07:18.337Z,3.03
2018-07-11T03:12:11.577Z,3.53
2018-07-11T03:17:05.959Z,4.03
2018-07-11T03:21:59.271Z,3.80
2018-07-11T03:26:52.752Z,4.07
2018-07-11T03:31:46.061Z,4.62
2018-07-11T03:36:39.336Z,5.80
2018-07-11T03:41:32.627Z,5.22
2018-07-11T03:46:25.920Z,7.20
2018-07-11T03:51:19.206Z,6.87
2018-07-11T03:56:12.441Z,6.37
2018-07-11T04:01:05.679Z,6.60
2018-07-11T04:05:58.824Z,6.72
2018-07-11T04:10:52.145Z,6.40
2018-07-11T04:15:45.626Z,6.20
2018-07-11T04:20:38.884Z,5.43
2018-07-11T04:25:32.073Z,4.78
2018-07-11T04:30:25.338Z,5.00
2018-07-11T04:35:18.537Z,4.75
2018-07-11T04:40:11.793Z,5.30
2018-07-11T04:45:05.054Z,6.10
2018-07-11T04:49:58.228Z,5.43
2018-07-11T04:54:51.636Z,6.55
2018-07-11T04:59:44.844Z,6.17
2018-07-11T05:04:38.776Z,6.20
2018-07-11T05:09:32.003Z,6.80
2018-07-11T05:14:25.220Z,6.40
2018-07-11T05:19:19.095Z,7.15
2018-07-11T05:24:12.252Z,8.43
2018-07-11T05:29:05.515Z,6.93
2018-07-11T05:33:58.735Z,8.00
2018-07-11T05:38:51.990Z,8.17
2018-07-11T05:43:45.113Z,10.80
2018-07-11T05:48:38.361Z,10.50
2018-07-11T05:53:31.607Z,11.63
2018-07-11T05:58:24.752Z,12.50
2018-07-11T06:03:18.203Z,14.20
2018-07-11T06:08:12.155Z,14.03
2018-07-11T06:13:05.402Z,14.10
2018-07-11T06:17:58.605Z,14.60
2018-07-11T06:22:52.289Z,14.63
2018-07-11T06:27:45.530Z,14.77
2018-07-11T06:32:38.819Z,14.37
2018-07-11T06:37:32.094Z,13.63
2018-07-11T06:42:25.313Z,15.58
2018-07-11T06:47:18.572Z,15.00
2018-07-11T06:52:11.981Z,13.80
2018-07-11T06:57:06.373Z,12.43
2018-07-11T07:01:59.585Z,12.97
2018-07-11T07:06:53.408Z,11.90
2018-07-11T07:11:46.537Z,11.25
2018-07-11T07:16:40.661Z,11.77
2018-07-11T07:21:33.961Z,10.97
2018-07-11T07:26:27.179Z,9.17
2018-07-11T07:31:20.430Z,10.00
2018-07-11T07:36:13.860Z,11.20
2018-07-11T07:41:08.462Z,8.80
2018-07-11T07:46:01.828Z,9.50
2018-07-11T07:50:55.151Z,10.05
2018-07-11T07:55:48.533Z,10.90
2018-07-11T08:00:41.786Z,10.10
2018-07-11T08:05:34.974Z,11.17
2018-07-11T08:10:28.299Z,10.83
2018-07-11T08:15:21.564Z,8.95
2018-07-11T08:20:15.016Z,9.40
2018-07-11T08:26:28.562Z,10.17
2018-07-11T08:31:43.029Z,8.70
2018-07-11T08:38:54.685Z,9.97
2018-07-11T08:46:04.772Z,7.23
2018-07-11T08:52:20.741Z,8.37
2018-07-11T08:58:04.833Z,7.97
2018-07-11T09:07:22.742Z,8.13
2018-07-11T09:12:35.551Z,6.83
2018-07-11T09:19:22.037Z,6.30
2018-07-11T09:24:32.738Z,5.57
2018-07-11T09:29:25.967Z,6.30
2018-07-11T09:34:19.261Z,5.80
2018-07-11T09:39:12.695Z,5.07
2018-07-11T09:44:05.938Z,4.70
2018-07-11T09:48:59.383Z,4.27
2018-07-11T09:53:52.697Z,4.70
2018-07-11T09:58:46.627Z,4.87
2018-07-11T10:03:39.903Z,4.13
2018-07-11T10:08:33.232Z,4.83
2018-07-11T10:13:26.643Z,4.73
2018-07-11T10:18:20.239Z,5.67
2018-07-11T10:23:13.589Z,4.40
2018-07-11T10:28:18.184Z,5.83
2018-07-11T10:33:12.276Z,5.40
2018-07-11T10:38:05.887Z,6.13
2018-07-11T10:42:59.283Z,6.60
2018-07-11T10:47:52.703Z,6.37
2018-07-11T10:52:46.530Z,5.60
2018-07-11T10:57:40.667Z,6.33
2018-07-11T11:02:33.890Z,5.00
2018-07-11T11:07:27.775Z,5.13
2018-07-11T11:12:21.107Z,4.93
2018-07-11T11:17:14.428Z,4.20
2018-07-11T11:22:08.865Z,3.20
2018-07-11T11:27:02.096Z,2.50
2018-07-11T11:31:55.368Z,2.50
2018-07-11T11:36:48.642Z,1.80
2018-07-11T11:41:42.368Z,2.30
2018-07-11T11:46:35.456Z,2.00
2018-07-11T11:51:28.679Z,2.15
2018-07-11T11:56:22.033Z,1.87
2018-07-11T12:01:15.320Z,1.87
2018-07-11T12:06:09.509Z,1.50
2018-07-11T12:11:02.905Z,1.60
2018-07-11T12:15:56.064Z,1.35
2018-07-11T12:20:49.649Z,1.27
2018-07-11T12:26:09.624Z,1.53
2018-07-11T12:31:03.073Z,1.30
2018-07-11T12:35:56.379Z,1.40
2018-07-11T12:40:49.713Z,1.60
2018-07-11T12:45:42.992Z,1.60
2018-07-11T12:50:36.344Z,1.20
2018-07-11T12:55:29.494Z,1.30
2018-07-11T13:00:22.991Z,1.80
2018-07-11T13:05:16.341Z,1.40
2018-07-11T13:10:09.668Z,1.30
2018-07-11T13:15:02.957Z,1.23
2018-07-11T13:19:56.209Z,1.23
2018-07-11T13:24:49.357Z,1.55
2018-07-11T13:29:42.615Z,1.43
2018-07-11T13:34:36.337Z,1.77
2018-07-11T13:39:29.485Z,1.70
2018-07-11T13:44:22.724Z,1.70
2018-07-11T13:49:16.044Z,1.87
2018-07-11T13:54:09.815Z,1.45
2018-07-11T13:59:03.835Z,1.60
2018-07-11T14:03:57.034Z,1.60
2018-07-11T14:08:51.181Z,1.60
2018-07-11T14:13:44.524Z,1.83
2018-07-11T14:18:37.911Z,1.87
2018-07-11T14:23:39.326Z,1.93
2018-07-11T14:28:32.817Z,2.40
2018-07-11T14:33:29.770Z,2.07
2018-07-11T14:38:24.835Z,2.00
2018-07-11T14:43:18.426Z,1.93
2018-07-11T14:48:15.891Z,2.83
2018-07-11T14:53:09.456Z,1.97
2018-07-11T14:58:02.773Z,2.60
2018-07-11T15:02:56.693Z,2.27
2018-07-11T15:07:49.845Z,2.58
2018-07-11T15:12:43.155Z,2.93
2018-07-11T15:17:36.576Z,3.33
2018-07-11T15:22:29.981Z,3.50
2018-07-11T15:27:23.583Z,4.83
2018-07-11T15:32:16.798Z,5.22
2018-07-11T15:37:10.217Z,5.17
2018-07-11T15:42:04.080Z,5.50
2018-07-11T15:46:57.453Z,5.23
2018-07-11T15:51:51.136Z,6.35
2018-07-11T15:56:44.576Z,6.30
2018-07-11T16:01:46.141Z,5.78
2018-07-11T16:06:39.655Z,6.07
2018-07-11T16:11:32.995Z,5.63
2018-07-11T16:16:26.285Z,5.50
2018-07-11T16:21:19.623Z,5.57
2018-07-11T16:26:13.119Z,4.92
2018-07-11T16:31:06.293Z,4.90
2018-07-11T16:35:59.629Z,5.10
2018-07-11T16:40:54.051Z,5.17
2018-07-11T16:45:47.424Z,5.23
2018-07-11T16:50:40.755Z,4.87
2018-07-11T16:55:35.248Z,4.53
2018-07-11T17:00:32.358Z,4.37
2018-07-11T17:05:25.692Z,5.50
2018-07-11T17:10:21.362Z,5.28
2018-07-11T17:15:14.716Z,4.77
2018-07-11T17:20:10.220Z,5.08
2018-07-11T17:25:05.986Z,4.70
2018-07-11T17:30:02.283Z,4.57
2018-07-11T17:34:55.508Z,4.57
2018-07-11T17:39:54.893Z,5.50
2018-07-11T17:44:53.380Z,5.00
2018-07-11T17:49:55.801Z,4.03
2018-07-11T17:55:08.686Z,4.20
2018-07-11T18:00:07.458Z,3.97
2018-07-11T18:05:48.862Z,4.70
2018-07-11T18:10:47.912Z,3.53
2018-07-11T18:15:53.419Z,4.33
2018-07-11T18:23:14.044Z,4.27
2018-07-11T18:28:22.219Z,4.33
2018-07-11T18:33:43.537Z,5.20
2018-07-11T18:39:05.844Z,4.80
2018-07-11T18:46:20.655Z,5.63
2018-07-11T18:51:28.780Z,5.33
2018-07-11T18:57:09.071Z,6.20
2018-07-11T19:05:26.153Z,6.60
2018-07-11T19:10:44.834Z,6.77
2018-07-11T19:15:43.638Z,6.80
2018-07-11T19:21:47.040Z,6.33
2018-07-11T19:26:57.951Z,6.13
2018-07-11T19:33:06.329Z,5.97
2018-07-11T19:38:07.186Z,6.90
2018-07-11T19:44:16.752Z,6.23
2018-07-11T19:49:30.575Z,6.10
2018-07-11T19:54:46.332Z,6.10
2018-07-11T19:59:39.647Z,5.33
2018-07-11T20:04:33.020Z,6.50
2018-07-11T20:09:27.055Z,7.80
2018-07-11T20:14:21.378Z,7.42
2018-07-11T20:19:14.823Z,13.70
2018-07-11T20:24:08.125Z,7.30
2018-07-11T20:29:01.489Z,7.23
2018-07-11T20:33:54.743Z,6.63
2018-07-11T20:38:48.041Z,6.70
2018-07-11T20:43:41.630Z,6.80
2018-07-11T20:48:38.613Z,7.77
2018-07-11T20:53:32.007Z,7.20
2018-07-11T20:58:36.861Z,9.00
2018-07-11T21:04:49.462Z,7.80
2018-07-11T21:10:16.296Z,7.87
2018-07-11T21:17:29.642Z,10.43
2018-07-11T21:22:22.925Z,11.83
2018-07-11T21:27:16.137Z,12.30
2018-07-11T21:32:09.386Z,15.70
2018-07-11T21:37:02.617Z,11.18
2018-07-11T21:41:55.867Z,12.17
2018-07-11T21:46:49.147Z,12.88
2018-07-11T21:51:42.301Z,13.93
2018-07-11T21:56:35.525Z,13.88
2018-07-11T22:01:28.856Z,13.07
2018-07-11T22:06:22.109Z,17.75
2018-07-11T22:11:15.359Z,12.77
2018-07-11T22:16:11.486Z,12.68
2018-07-11T22:21:04.041Z,12.03
2018-07-11T22:25:55.611Z,10.90
2018-07-11T22:30:48.137Z,10.70
2018-07-11T22:35:40.531Z,10.20
2018-07-11T22:40:32.218Z,10.10
2018-07-11T22:45:23.811Z,9.53
2018-07-11T22:50:15.959Z,8.70
2018-07-11T22:55:07.528Z,8.83
2018-07-11T22:59:59.553Z,8.10
2018-07-11T23:04:51.123Z,8.57
2018-07-11T23:09:42.771Z,8.37
2018-07-11T23:14:34.671Z,8.10
2018-07-11T23:19:26.526Z,8.40
2018-07-11T23:24:18.544Z,7.50
2018-07-11T23:29:10.229Z,7.80
2018-07-11T23:34:01.794Z,8.20
2018-07-11T23:38:53.379Z,8.60
2018-07-11T23:43:45.388Z,8.53
2018-07-11T23:48:36.957Z,9.83
2018-07-11T23:53:29.024Z,9.60
2018-07-11T23:58:20.585Z,9.60
